Round Lake Park, Illinois
Current Conditions -  °F | °C
As of 11:55 AM on Thursday 27 Nov 2014 (Local Time) from KUGN Reporting Station
Overcast Overcast  
Wind Chill: 11°   Ceiling: 1700
Heat Index: 23°   Visibility: 10mi
Dew Point: 15°   Wind: 14mph
Humidity: 72%   Direction: 300°WNW
Pressure: 30.32"   Gusts: 18mph
Location:  42.3442°N, 88.1158°W
Report Text: KUGN 271755Z 30012G16KT 10SM OVC017 M05/M09 A3032 RMK AO2 SLP286 60000 T10501094 11044 21056 50002 $
Loading
Personal Weather Stations






























Interactive Weather Map New forecast layout! Learn more

10-Day Weather Forecast

Advertisements
Track Severe Weather on mobile